Time;durP1;ratioP1;P1;durP2;ratioP2;P2;SDS_P1;SDS_P2;PMS_P1;PMS_P2;Temp;Humidity;BMP_temperature;BMP_pressure;BME280_temperature;BME280_humidity;BME280_pressure;Samples;Min_cycle;Max_cycle;Signal;HPM_P1;HPM_P2
2022/12/13 00:02:01;;;;;;;39.80;18.95;;;;;;;-4.29;100.00;101271.66;2614712;36;20038;-47
2022/12/13 00:04:30;;;;;;;43.00;19.90;;;;;;;-4.27;100.00;101267.25;2613575;31;20034;-49
2022/12/13 00:06:58;;;;;;;45.38;19.88;;;;;;;-4.29;100.00;101266.41;2614786;36;20026;-49
2022/12/13 00:09:26;;;;;;;39.42;19.20;;;;;;;-4.35;100.00;101266.53;2614552;36;20085;-49
2022/12/13 00:11:55;;;;;;;46.08;21.17;;;;;;;-4.30;100.00;101264.69;2614117;36;20034;-49
2022/12/13 00:14:26;;;;;;;40.95;20.55;;;;;;;-4.30;100.00;101266.44;2614585;31;20030;-47
2022/12/13 00:16:54;;;;;;;47.35;19.98;;;;;;;-4.36;100.00;101262.16;2613806;36;20041;-48
2022/12/13 00:19:23;;;;;;;46.35;22.27;;;;;;;-4.43;100.00;101257.94;2613568;36;20414;-50
2022/12/13 00:21:54;;;;;;;40.30;19.75;;;;;;;-4.55;100.00;101264.28;2615625;31;20570;-49
2022/12/13 00:24:22;;;;;;;40.15;20.13;;;;;;;-4.63;100.00;101261.81;2613902;36;20030;-51
2022/12/13 00:26:51;;;;;;;45.70;19.65;;;;;;;-4.69;100.00;101248.81;2613147;36;20022;-52
2022/12/13 00:29:19;;;;;;;34.90;18.27;;;;;;;-4.72;100.00;101256.75;2614421;36;20041;-50
2022/12/13 00:31:50;;;;;;;37.55;19.10;;;;;;;-4.69;100.00;101256.69;2615356;36;20031;-49
2022/12/13 00:34:18;;;;;;;37.40;18.35;;;;;;;-4.69;100.00;101256.69;2615219;36;20027;-49
2022/12/13 00:36:47;;;;;;;35.95;16.42;;;;;;;-4.61;100.00;101252.16;2615694;36;20478;-48
2022/12/13 00:39:15;;;;;;;33.33;15.73;;;;;;;-4.66;100.00;101259.25;2615099;36;20022;-50
2022/12/13 00:41:45;;;;;;;31.98;16.35;;;;;;;-4.75;100.00;101248.94;2614706;36;20030;-49
2022/12/13 00:44:14;;;;;;;31.67;15.68;;;;;;;-4.73;100.00;101243.66;2614599;36;20624;-48
2022/12/13 00:46:44;;;;;;;33.40;15.98;;;;;;;-4.78;100.00;101249.00;2614552;36;20100;-49
2022/12/13 00:49:15;;;;;;;33.85;17.77;;;;;;;-4.79;100.00;101234.97;2615030;36;20061;-49
2022/12/13 00:51:43;;;;;;;32.80;17.25;;;;;;;-4.73;100.00;101239.25;2614761;36;20022;-48
2022/12/13 00:54:12;;;;;;;34.28;15.75;;;;;;;-4.70;100.00;101239.19;2615107;36;20030;-47
2022/12/13 00:56:41;;;;;;;35.20;17.02;;;;;;;-4.65;100.00;101237.38;2613478;36;20038;-49
2022/12/13 00:59:09;;;;;;;32.92;15.63;;;;;;;-4.55;100.00;101232.78;2613919;31;20038;-51
2022/12/13 01:01:39;;;;;;;36.40;17.92;;;;;;;-4.47;100.00;101225.63;2614032;36;20058;-50
2022/12/13 01:04:08;;;;;;;31.30;15.95;;;;;;;-4.46;100.00;101216.84;2614621;36;20030;-47
2022/12/13 01:06:42;;;;;;;32.30;15.73;;;;;;;-4.59;100.00;101226.72;2615829;31;20026;-49
2022/12/13 01:09:17;;;;;;;31.80;15.25;;;;;;;-4.60;100.00;101222.34;2613150;36;20554;-48
2022/12/13 01:11:49;;;;;;;34.55;16.48;;;;;;;-4.51;100.00;101228.34;2615403;36;20500;-47
2022/12/13 01:14:19;;;;;;;37.63;17.80;;;;;;;-4.45;100.00;101218.56;2615002;31;20038;-50
2022/12/13 01:16:47;;;;;;;37.83;18.00;;;;;;;-4.44;100.00;101219.44;2615181;36;20431;-48
2022/12/13 01:19:16;;;;;;;40.70;18.17;;;;;;;-4.47;100.00;101214.25;2616069;31;20098;-48
2022/12/13 01:21:47;;;;;;;38.70;17.33;;;;;;;-4.40;100.00;101221.97;2614644;36;20034;-49
2022/12/13 01:24:19;;;;;;;36.97;18.05;;;;;;;-4.41;100.00;101209.72;2612833;36;20027;-48
2022/12/13 01:26:47;;;;;;;35.20;16.88;;;;;;;-4.44;100.00;101212.41;2614353;36;20042;-48
2022/12/13 01:29:16;;;;;;;31.73;15.73;;;;;;;-4.52;100.00;101224.84;2614752;36;20030;-49
2022/12/13 01:31:44;;;;;;;34.88;16.38;;;;;;;-4.46;100.00;101216.84;2615671;36;20035;-49
2022/12/13 01:34:14;;;;;;;37.60;17.55;;;;;;;-4.41;100.00;101220.22;2613219;36;20030;-48
2022/12/13 01:36:44;;;;;;;36.35;16.42;;;;;;;-4.40;100.00;101215.84;2613914;36;20030;-47
2022/12/13 01:39:21;;;;;;;37.13;17.60;;;;;;;-4.52;100.00;101216.97;2614004;36;20038;-51
2022/12/13 01:41:55;;;;;;;33.38;15.80;;;;;;;-4.58;100.00;101217.97;2615366;36;20130;-49
2022/12/13 01:45:08;;;;;;;33.08;16.88;;;;;;;-4.66;100.00;101224.25;2614590;31;20543;-49
2022/12/13 01:47:42;;;;;;;35.85;16.63;;;;;;;-4.66;100.00;101229.50;2612791;36;20038;-52
2022/12/13 01:50:14;;;;;;;33.88;15.07;;;;;;;-4.72;100.00;101220.00;2614117;36;20035;-48
2022/12/13 01:52:46;;;;;;;33.60;16.30;;;;;;;-4.65;100.00;101231.22;2615234;36;20031;-50
2022/12/13 01:55:20;;;;;;;34.00;16.83;;;;;;;-4.66;100.00;101224.25;2614520;36;20023;-49
2022/12/13 01:57:52;;;;;;;34.15;16.95;;;;;;;-4.67;100.00;101226.00;2615588;36;20543;-50
2022/12/13 02:00:21;;;;;;;37.58;16.70;;;;;;;-4.64;100.00;101223.34;2614725;36;20030;-48
2022/12/13 02:02:50;;;;;;;34.45;17.40;;;;;;;-4.63;100.00;101214.53;2614963;36;20426;-50
2022/12/13 02:05:25;;;;;;;33.42;16.30;;;;;;;-4.66;100.00;101219.88;2615232;36;20081;-49
2022/12/13 02:07:54;;;;;;;36.72;16.83;;;;;;;-4.68;100.00;101211.16;2615213;36;20035;-49
2022/12/13 02:10:25;;;;;;;38.30;16.98;;;;;;;-4.71;100.00;101221.72;2612592;36;20030;-48
2022/12/13 02:12:53;;;;;;;35.40;16.65;;;;;;;-4.76;100.00;101220.94;2615290;36;20030;-48
2022/12/13 02:15:23;;;;;;;36.85;15.45;;;;;;;-4.80;100.00;101203.50;2613407;36;20034;-50
2022/12/13 02:18:03;;;;;;;35.25;16.92;;;;;;;-4.80;100.00;101207.00;2613315;36;20031;-48
2022/12/13 02:20:44;;;;;;;31.70;15.35;;;;;;;-4.79;100.00;101207.88;2612867;36;20030;-48
2022/12/13 02:23:32;;;;;;;34.80;16.40;;;;;;;-4.86;100.00;101214.13;2615440;36;20030;-48
2022/12/13 02:26:32;;;;;;;35.58;16.45;;;;;;;-4.80;100.00;101211.38;2614077;36;20032;-49
2022/12/13 02:29:22;;;;;;;34.25;16.05;;;;;;;-4.90;100.00;101220.31;2615057;36;20037;-49
2022/12/13 02:31:59;;;;;;;33.80;16.00;;;;;;;-4.91;100.00;101229.97;2615538;36;20546;-49
2022/12/13 02:34:36;;;;;;;34.67;15.77;;;;;;;-4.93;100.00;101223.91;2614563;36;20034;-50
2022/12/13 02:37:09;;;;;;;33.22;15.65;;;;;;;-4.89;100.00;101222.06;2615356;36;20563;-47
2022/12/13 02:39:42;;;;;;;38.83;16.45;;;;;;;-4.96;100.00;101216.94;2614192;36;20031;-49
2022/12/13 02:42:20;;;;;;;32.13;15.93;;;;;;;-5.03;100.00;101225.81;2613930;31;20030;-48
2022/12/13 02:44:55;;;;;;;36.90;15.60;;;;;;;-5.01;100.00;101224.00;2614452;36;20034;-47
2022/12/13 02:47:28;;;;;;;30.73;14.90;;;;;;;-5.08;100.00;101216.28;2613922;36;20035;-49
2022/12/13 02:50:00;;;;;;;32.53;14.30;;;;;;;-5.01;100.00;101216.13;2614688;36;20041;-48
2022/12/13 02:52:31;;;;;;;33.72;15.48;;;;;;;-5.04;100.00;101213.56;2614641;36;20037;-47
2022/12/13 02:55:00;;;;;;;30.98;15.35;;;;;;;-5.02;100.00;101211.81;2614623;36;20026;-50
2022/12/13 02:57:33;;;;;;;32.97;15.02;;;;;;;-5.08;100.00;101206.63;2615776;36;20471;-47
2022/12/13 03:00:07;;;;;;;27.25;14.43;;;;;;;-5.01;100.00;101205.63;2613972;36;20046;-48
2022/12/13 03:02:46;;;;;;;30.10;14.40;;;;;;;-5.02;100.00;101205.66;2614952;31;20022;-51
2022/12/13 03:08:41;;;;;;;33.58;14.40;;;;;;;-5.18;100.00;101205.06;2615422;36;20038;-49
2022/12/13 03:11:13;;;;;;;29.85;14.35;;;;;;;-5.28;100.00;101213.13;2614772;36;20555;-48
2022/12/13 03:13:48;;;;;;;29.15;14.57;;;;;;;-5.26;100.00;101207.00;2615310;36;20031;-49
2022/12/13 03:16:26;;;;;;;29.77;15.00;;;;;;;-5.14;100.00;101207.66;2613257;36;20027;-49
2022/12/13 03:19:00;;;;;;;32.35;15.38;;;;;;;-5.20;100.00;101212.97;2613415;36;20721;-47
2022/12/13 03:21:30;;;;;;;35.00;15.93;;;;;;;-5.18;100.00;101202.44;2614575;36;20030;-50
2022/12/13 03:23:58;;;;;;;31.75;14.98;;;;;;;-5.22;100.00;101203.44;2614652;36;20061;-48
2022/12/13 03:26:28;;;;;;;29.60;14.27;;;;;;;-5.31;100.00;101201.81;2614590;31;20049;-49
2022/12/13 03:28:57;;;;;;;30.55;15.75;;;;;;;-5.35;100.00;101205.38;2614857;36;20027;-49
2022/12/13 03:31:25;;;;;;;26.83;14.07;;;;;;;-5.34;100.00;101202.75;2613722;36;20046;-48
2022/12/13 03:33:53;;;;;;;33.03;15.25;;;;;;;-5.30;100.00;101199.19;2614318;36;20030;-48
2022/12/13 03:36:24;;;;;;;35.78;16.33;;;;;;;-5.42;100.00;101201.13;2615309;31;20046;-49
2022/12/13 03:38:55;;;;;;;27.13;13.85;;;;;;;-5.26;100.00;101202.59;2613837;36;20034;-47
2022/12/13 03:41:30;;;;;;;35.08;15.10;;;;;;;-5.39;100.00;101206.31;2614080;36;20045;-49
2022/12/13 03:43:58;;;;;;;30.20;15.05;;;;;;;-5.44;100.00;101202.94;2614780;36;20035;-49
2022/12/13 03:46:27;;;;;;;30.35;14.07;;;;;;;-5.46;100.00;101205.59;2611777;36;20038;-51
2022/12/13 03:48:55;;;;;;;32.30;14.88;;;;;;;-5.50;100.00;101210.00;2612746;36;20637;-48
2022/12/13 03:51:26;;;;;;;30.17;14.60;;;;;;;-5.60;100.00;101208.41;2614926;36;20037;-48
2022/12/13 03:53:54;;;;;;;33.97;15.55;;;;;;;-5.61;100.00;101205.81;2614786;36;20030;-48
2022/12/13 03:56:23;;;;;;;31.67;14.30;;;;;;;-5.59;100.00;101196.16;2614027;36;20022;-48
2022/12/13 03:58:51;;;;;;;26.83;12.93;;;;;;;-5.59;100.00;101198.78;2615065;36;20031;-47
2022/12/13 04:01:20;;;;;;;31.58;14.85;;;;;;;-5.61;100.00;101190.94;2613264;36;20061;-46
2022/12/13 04:03:49;;;;;;;;;;;;;;;-5.67;100.00;101184.06;2615490;36;20097;-48
2022/12/13 04:06:17;;;;;;;34.67;15.77;;;;;;;-5.59;100.00;101191.78;2614967;36;19946;-49
2022/12/13 04:08:48;;;;;;;32.15;14.93;;;;;;;-5.53;100.00;101182.97;2614379;36;20034;-47
2022/12/13 04:13:57;;;;;;;29.23;14.63;;;;;;;-5.71;100.00;101185.00;2615615;36;20057;-47
2022/12/13 04:16:26;;;;;;;28.90;14.45;;;;;;;-5.69;100.00;101185.81;2612979;36;20035;-48
2022/12/13 04:18:54;;;;;;;31.73;14.82;;;;;;;-5.60;100.00;101186.59;2612262;36;20027;-50
2022/12/13 04:21:23;;;;;;;29.45;14.73;;;;;;;-5.56;100.00;101188.25;2615016;36;20586;-50
2022/12/13 04:23:54;;;;;;;36.15;15.27;;;;;;;-5.64;100.00;101181.38;2614983;36;20042;-50
2022/12/13 04:26:22;;;;;;;30.50;14.32;;;;;;;-5.66;100.00;101183.16;2614906;31;20030;-47
2022/12/13 04:28:51;;;;;;;33.97;14.82;;;;;;;-5.70;100.00;101181.47;2615868;36;20023;-49
2022/12/13 04:31:19;;;;;;;29.92;15.00;;;;;;;-5.61;100.00;101177.81;2613658;36;20026;-51
2022/12/13 04:33:47;;;;;;;29.50;14.85;;;;;;;-5.62;100.00;101173.50;2615008;36;20049;-47
2022/12/13 04:36:24;;;;;;;33.65;15.02;;;;;;;-5.77;100.00;101172.00;2615889;36;20026;-48
2022/12/13 04:38:55;;;;;;;34.95;15.88;;;;;;;-5.74;100.00;101174.56;2614386;36;20030;-49
2022/12/13 04:41:23;;;;;;;28.77;14.63;;;;;;;-5.66;100.00;101172.66;2613409;36;20042;-48
2022/12/13 04:43:55;;;;;;;34.40;15.07;;;;;;;-5.56;100.00;101178.63;2615184;36;20034;-48
2022/12/13 04:46:24;;;;;;;35.50;16.33;;;;;;;-5.42;100.00;101180.16;2612900;36;20768;-47
2022/12/13 04:48:52;;;;;;;37.13;16.48;;;;;;;-5.41;100.00;101181.88;2613623;36;20523;-49
2022/12/13 04:51:21;;;;;;;34.95;16.70;;;;;;;-5.45;100.00;101183.69;2615414;36;20034;-49
2022/12/13 04:53:49;;;;;;;38.83;19.35;;;;;;;-5.38;100.00;101177.44;2614580;36;20026;-50
2022/12/13 04:56:20;;;;;;;37.88;15.50;;;;;;;-5.40;100.00;101178.34;2614531;36;20039;-49
2022/12/13 04:58:49;;;;;;;34.90;15.63;;;;;;;-5.40;100.00;101174.00;2614598;31;20030;-49
2022/12/13 05:01:17;;;;;;;35.15;16.20;;;;;;;-5.39;100.00;101175.69;2613282;36;20038;-48
2022/12/13 05:03:46;;;;;;;36.97;17.25;;;;;;;-5.45;100.00;101173.19;2613722;36;20027;-51
2022/12/13 05:06:15;;;;;;;36.53;16.95;;;;;;;-5.56;100.00;101165.53;2614943;31;20098;-48
2022/12/13 05:08:43;;;;;;;;;;;;;;;-5.71;100.00;101174.50;2615251;31;20045;-51
2022/12/13 05:11:13;;;;;;;34.00;15.77;;;;;;;-5.78;100.00;101178.13;2611340;36;19962;-47
2022/12/13 05:13:44;;;;;;;32.97;15.27;;;;;;;-5.82;100.00;101163.31;2610874;36;20038;-48
2022/12/13 05:16:14;;;;;;;35.17;15.57;;;;;;;-5.76;100.00;101165.84;2614846;36;20408;-49
2022/12/13 05:18:43;;;;;;;33.92;15.20;;;;;;;-5.77;100.00;101158.88;2614012;31;20496;-49
2022/12/13 05:21:13;;;;;;;33.60;15.25;;;;;;;-5.75;100.00;101157.09;2613417;36;20035;-48
2022/12/13 05:23:41;;;;;;;38.38;17.15;;;;;;;-5.79;100.00;101158.03;2613849;36;20111;-51
2022/12/13 05:26:10;;;;;;;31.60;15.13;;;;;;;-5.80;100.00;101153.66;2613934;36;20130;-48
2022/12/13 05:28:38;;;;;;;34.95;16.33;;;;;;;-5.76;100.00;101150.09;2614328;36;20030;-50
2022/12/13 05:31:12;;;;;;;36.97;16.13;;;;;;;-5.76;100.00;101147.47;2611597;36;20034;-49
2022/12/13 05:33:41;;;;;;;35.33;16.42;;;;;;;-5.83;100.00;101153.72;2614374;36;20031;-49
2022/12/13 05:36:11;;;;;;;32.85;15.95;;;;;;;-5.91;100.00;101145.13;2613750;36;20633;-50
2022/12/13 05:38:39;;;;;;;36.70;15.90;;;;;;;-5.93;100.00;101141.66;2614376;36;20034;-48
2022/12/13 05:41:08;;;;;;;36.95;16.00;;;;;;;-5.96;100.00;101136.44;2613002;36;20022;-48
2022/12/13 05:43:37;;;;;;;34.05;16.70;;;;;;;-5.93;100.00;101144.25;2614509;36;20034;-49
2022/12/13 05:46:05;;;;;;;33.60;17.85;;;;;;;-6.06;100.00;101131.41;2613431;36;20038;-51
2022/12/13 05:48:36;;;;;;;36.10;16.70;;;;;;;-6.04;100.00;101132.22;2614234;36;20038;-50
2022/12/13 05:51:04;;;;;;;40.15;17.95;;;;;;;-5.95;100.00;101132.94;2615633;36;20022;-48
2022/12/13 05:53:33;;;;;;;37.87;17.13;;;;;;;-6.03;100.00;101128.72;2612821;36;20458;-48
2022/12/13 05:56:02;;;;;;;36.30;16.85;;;;;;;-6.10;100.00;101129.72;2615259;36;20038;-48
2022/12/13 05:58:30;;;;;;;37.30;16.20;;;;;;;-6.04;100.00;101129.59;2615703;36;20186;-49
2022/12/13 06:01:06;;;;;;;34.95;17.15;;;;;;;-6.02;100.00;101134.81;2614088;36;20034;-50
2022/12/13 06:03:37;;;;;;;38.95;17.60;;;;;;;-6.11;100.00;101135.84;2615058;36;20034;-48
2022/12/13 06:06:07;;;;;;;35.08;15.90;;;;;;;-6.14;100.00;101133.25;2615890;31;20031;-48
2022/12/13 06:08:35;;;;;;;36.38;17.13;;;;;;;-6.14;100.00;101133.25;2615320;31;20030;-49
2022/12/13 06:11:06;;;;;;;46.05;17.00;;;;;;;-6.20;100.00;101136.88;2614412;36;20633;-49
2022/12/13 06:13:34;;;;;;;37.45;16.27;;;;;;;-6.26;100.00;101136.06;2612711;36;20035;-48
2022/12/13 06:16:03;;;;;;;37.20;16.83;;;;;;;-6.27;100.00;101127.34;2614199;31;20435;-49
2022/12/13 06:18:33;;;;;;;33.25;15.80;;;;;;;-6.29;100.00;101128.25;2615261;31;20558;-48
2022/12/13 06:21:07;;;;;;;41.03;15.90;;;;;;;-6.36;100.00;101140.56;2612809;36;20459;-47
2022/12/13 06:23:37;;;;;;;34.63;15.23;;;;;;;-6.24;100.00;101136.91;2614909;31;20033;-49
2022/12/13 06:26:09;;;;;;;36.55;16.42;;;;;;;-6.22;100.00;101135.16;2613532;36;20034;-51
2022/12/13 06:28:38;;;;;;;36.42;16.08;;;;;;;-6.13;100.00;101139.38;2615313;36;20546;-48
2022/12/13 06:31:07;;;;;;;38.53;17.40;;;;;;;-6.17;100.00;101138.53;2613528;36;20466;-50
2022/12/13 06:33:37;;;;;;;34.20;15.13;;;;;;;-6.27;100.00;101136.94;2613760;31;20035;-50
2022/12/13 06:36:10;;;;;;;38.03;17.38;;;;;;;-6.33;100.00;101132.66;2614065;36;20058;-51
2022/12/13 06:38:38;;;;;;;35.17;16.92;;;;;;;-6.35;100.00;101127.44;2615722;36;20035;-49
2022/12/13 06:41:11;;;;;;;31.08;15.65;;;;;;;-6.27;100.00;101126.47;2613920;36;20031;-49
2022/12/13 06:43:42;;;;;;;33.83;15.77;;;;;;;-6.36;100.00;101120.50;2615088;36;20034;-50
2022/12/13 06:46:11;;;;;;;37.17;17.60;;;;;;;-6.35;100.00;101134.44;2614020;36;20041;-50
2022/12/13 06:48:41;;;;;;;33.28;16.80;;;;;;;-6.25;100.00;101130.81;2615475;36;20022;-54
2022/12/13 06:51:12;;;;;;;42.03;16.50;;;;;;;-6.33;100.00;101130.03;2613258;36;20065;-49
2022/12/13 06:53:42;;;;;;;33.60;15.20;;;;;;;-6.40;100.00;101126.66;2612373;36;20035;-48
2022/12/13 06:56:11;;;;;;;;;;;;;;;-6.45;100.00;101132.84;2613170;36;20547;-49
2022/12/13 06:58:39;;;;;;;35.33;16.50;;;;;;;-6.29;100.00;101133.50;2613663;36;20843;-51
2022/12/13 07:01:10;;;;;;;37.15;16.70;;;;;;;-6.24;100.00;101129.03;2610765;36;20488;-53
2022/12/13 07:03:39;;;;;;;32.30;15.60;;;;;;;-6.33;100.00;101137.91;2609405;36;20539;-49
2022/12/13 07:06:13;;;;;;;35.45;16.63;;;;;;;-6.42;100.00;101138.94;2613322;36;20431;-47
2022/12/13 07:08:42;;;;;;;39.40;17.40;;;;;;;-6.40;100.00;101133.66;2614551;36;20037;-50
2022/12/13 07:11:15;;;;;;;35.05;16.92;;;;;;;-6.45;100.00;101143.31;2613178;36;20037;-47
2022/12/13 07:13:44;;;;;;;34.00;16.42;;;;;;;-6.47;100.00;101143.34;2614329;36;20034;-48
2022/12/13 07:16:13;;;;;;;34.05;15.20;;;;;;;-6.52;100.00;101142.56;2612872;31;20035;-49
2022/12/13 07:18:42;;;;;;;33.38;15.25;;;;;;;-6.45;100.00;101144.19;2614563;36;20030;-50
2022/12/13 07:21:16;;;;;;;35.35;15.85;;;;;;;-6.52;100.00;101150.41;2614134;31;20547;-48
2022/12/13 07:23:44;;;;;;;38.83;16.40;;;;;;;-6.49;100.00;101147.75;2614430;36;20026;-47
2022/12/13 07:26:13;;;;;;;33.17;15.10;;;;;;;-6.57;100.00;101160.06;2611611;36;20037;-53
2022/12/13 07:28:41;;;;;;;31.52;15.82;;;;;;;-6.61;100.00;101156.63;2608715;36;20042;-52
2022/12/13 07:31:12;;;;;;;34.28;16.65;;;;;;;-6.66;100.00;101161.03;2614578;36;20042;-49
2022/12/13 07:33:40;;;;;;;35.65;15.82;;;;;;;-6.58;100.00;101166.19;2612349;31;20557;-51
2022/12/13 07:36:13;;;;;;;35.33;17.43;;;;;;;-6.56;100.00;101161.81;2612383;36;20050;-53
2022/12/13 07:38:42;;;;;;;35.75;16.60;;;;;;;-6.55;100.00;101160.91;2613941;36;20031;-50
2022/12/13 07:41:11;;;;;;;37.17;16.30;;;;;;;-6.58;100.00;101160.94;2613762;36;20035;-50
2022/12/13 07:43:39;;;;;;;37.13;16.20;;;;;;;-6.64;100.00;101161.91;2614332;36;20042;-50
2022/12/13 07:46:08;;;;;;;35.33;16.50;;;;;;;-6.59;100.00;101167.09;2613865;36;20030;-48
2022/12/13 07:48:36;;;;;;;37.30;17.08;;;;;;;-6.49;100.00;101166.09;2614637;36;20041;-52
2022/12/13 07:51:09;;;;;;;34.65;16.63;;;;;;;-6.50;100.00;101171.34;2616573;31;20049;-51
2022/12/13 07:53:41;;;;;;;37.13;16.67;;;;;;;-6.50;100.00;101171.34;2615110;36;20022;-52
2022/12/13 07:56:12;;;;;;;35.03;15.55;;;;;;;-6.45;100.00;101159.03;2614761;31;21327;-53
2022/12/13 07:58:41;;;;;;;35.17;16.48;;;;;;;-6.47;100.00;101174.78;2616703;31;20408;-52
2022/12/13 08:01:11;;;;;;;35.55;16.45;;;;;;;-6.45;100.00;101175.59;2615734;36;20041;-50
2022/12/13 08:03:39;;;;;;;36.42;17.92;;;;;;;-6.46;100.00;101181.75;2615767;31;20030;-50
2022/12/13 08:06:09;;;;;;;35.72;17.27;;;;;;;-6.44;100.00;101179.09;2615100;31;20037;-50
2022/12/13 08:08:40;;;;;;;34.17;16.40;;;;;;;-6.50;100.00;101174.81;2615480;36;20042;-50
2022/12/13 08:11:11;;;;;;;34.03;17.23;;;;;;;-6.31;100.00;101193.78;2614879;36;20027;-51
2022/12/13 08:13:40;;;;;;;37.67;17.65;;;;;;;-6.29;100.00;101188.50;2616213;31;20022;-47
2022/12/13 08:16:10;;;;;;;39.75;17.30;;;;;;;-6.34;100.00;101197.28;2614904;36;20031;-49
2022/12/13 08:18:39;;;;;;;34.25;16.77;;;;;;;-6.28;100.00;101203.34;2614026;36;20026;-49
2022/12/13 08:21:09;;;;;;;38.50;17.85;;;;;;;-6.27;100.00;101199.81;2615065;36;20122;-48
2022/12/13 08:23:40;;;;;;;35.33;16.73;;;;;;;-6.25;100.00;101203.31;2614772;31;20042;-48
2022/12/13 08:26:09;;;;;;;35.53;17.50;;;;;;;-6.12;100.00;101198.72;2613885;36;20109;-51
2022/12/13 08:28:37;;;;;;;37.83;16.92;;;;;;;-6.12;100.00;101204.88;2608358;36;20019;-50
2022/12/13 08:31:07;;;;;;;41.00;16.92;;;;;;;-6.06;100.00;101204.78;2614838;36;20030;-52
2022/12/13 08:33:36;;;;;;;40.22;18.52;;;;;;;-6.08;100.00;101206.56;2608613;36;20101;-52
2022/12/13 08:36:12;;;;;;;37.90;17.73;;;;;;;-5.99;100.00;101200.31;2614535;36;20038;-49
2022/12/13 08:38:43;;;;;;;38.60;18.08;;;;;;;-5.91;100.00;101213.28;2614013;36;20023;-51
2022/12/13 08:41:12;;;;;;;40.15;17.38;;;;;;;-5.89;100.00;101211.47;2613212;36;20038;-50
2022/12/13 08:43:40;;;;;;;44.30;18.15;;;;;;;-5.89;100.00;101206.25;2616233;31;20037;-50
2022/12/13 08:46:09;;;;;;;39.53;18.35;;;;;;;-5.83;100.00;101208.75;2614233;36;20061;-48
2022/12/13 08:48:37;;;;;;;40.08;19.40;;;;;;;-5.83;100.00;101214.00;2613945;36;20022;-49
2022/12/13 08:51:10;;;;;;;37.60;19.17;;;;;;;-5.71;100.00;101202.47;2615638;36;20042;-51
2022/12/13 08:53:38;;;;;;;39.10;19.05;;;;;;;-5.75;100.00;101206.91;2614905;36;20149;-50
2022/12/13 08:56:14;;;;;;;40.22;18.55;;;;;;;-5.65;100.00;101211.13;2612107;36;20035;-48
2022/12/13 08:58:42;;;;;;;39.00;17.50;;;;;;;-5.58;100.00;101211.00;2614537;31;20034;-49
2022/12/13 09:01:11;;;;;;;39.35;17.88;;;;;;;-5.57;100.00;101202.25;2615646;31;20022;-49
2022/12/13 09:03:39;;;;;;;40.22;17.90;;;;;;;-5.46;100.00;101197.72;2615485;36;20543;-49
2022/12/13 09:06:09;;;;;;;44.28;19.08;;;;;;;-5.31;100.00;101199.19;2613971;31;20030;-48
2022/12/13 09:08:38;;;;;;;42.67;18.25;;;;;;;-5.26;100.00;101196.50;2614835;31;20332;-49
2022/12/13 09:11:11;;;;;;;46.92;18.48;;;;;;;-5.18;100.00;101197.19;2613741;36;20054;-49
2022/12/13 09:13:40;;;;;;;42.25;19.15;;;;;;;-5.13;100.00;101201.47;2614601;36;20039;-47
2022/12/13 09:16:13;;;;;;;47.58;20.55;;;;;;;-5.07;100.00;101197.88;2615034;36;20606;-48
2022/12/13 09:18:41;;;;;;;56.75;24.85;;;;;;;-4.99;100.00;101193.38;2613604;36;20038;-51
2022/12/13 09:21:11;;;;;;;66.18;27.63;;;;;;;-4.91;100.00;101198.47;2614421;36;20554;-50
2022/12/13 09:23:40;;;;;;;59.83;26.20;;;;;;;-4.73;100.00;101197.25;2614388;36;20042;-47
2022/12/13 09:26:13;;;;;;;64.80;26.98;;;;;;;-4.66;100.00;101198.84;2615224;36;20478;-49
2022/12/13 09:28:42;;;;;;;53.95;23.25;;;;;;;-4.54;100.00;101191.63;2616447;36;20596;-48
2022/12/13 09:31:12;;;;;;;46.95;22.48;;;;;;;-4.45;100.00;101194.06;2615459;36;20581;-49
2022/12/13 09:33:41;;;;;;;50.75;23.90;;;;;;;-4.24;100.00;101198.84;2609218;36;20466;-51
2022/12/13 09:36:13;;;;;;;55.75;23.38;;;;;;;-4.06;100.00;101200.22;2615233;31;20570;-52
2022/12/13 09:38:41;;;;;;;54.70;23.45;;;;;;;-4.00;100.00;101198.34;2608658;36;20034;-53
2022/12/13 09:41:20;;;;;;;57.28;23.30;;;;;;;-3.88;100.00;101206.81;2614070;36;20619;-51
2022/12/13 09:43:51;;;;;;;46.92;22.00;;;;;;;-3.73;100.00;101202.09;2615520;36;20034;-51
2022/12/13 09:46:28;;;;;;;54.13;23.92;;;;;;;-3.68;100.00;101200.22;2614744;36;20026;-54
2022/12/13 09:48:57;;;;;;;49.40;22.52;;;;;;;-3.62;100.00;101196.56;2614997;36;20030;-52
2022/12/13 09:51:26;;;;;;;;;;;;;;;-3.30;100.00;101190.50;2615926;36;20030;-52
2022/12/13 09:53:56;;;;;;;49.97;22.83;;;;;;;-3.31;100.00;101187.91;2615191;31;19951;-50
2022/12/13 09:56:26;;;;;;;50.63;25.17;;;;;;;-3.29;100.00;101176.44;2614793;36;20058;-52
2022/12/13 09:58:58;;;;;;;52.03;22.98;;;;;;;-3.27;100.00;101181.66;2615637;36;20034;-52
2022/12/13 10:01:26;;;;;;;55.15;22.52;;;;;;;-3.19;100.00;101183.19;2614655;36;20029;-50
2022/12/13 10:03:57;;;;;;;51.90;22.30;;;;;;;-2.83;100.00;101185.75;2615108;36;20041;-52
2022/12/13 10:06:30;;;;;;;62.42;25.08;;;;;;;-2.75;100.00;101182.00;2616155;31;20555;-52
2022/12/13 10:09:01;;;;;;;54.90;25.35;;;;;;;-2.86;100.00;101175.28;2616475;36;20439;-53
2022/12/13 10:11:32;;;;;;;56.58;24.38;;;;;;;-2.79;100.00;101175.97;2612007;36;20598;-51
2022/12/13 10:14:06;;;;;;;51.50;23.35;;;;;;;-2.57;100.00;101172.75;2615606;36;20606;-54
2022/12/13 10:16:44;;;;;;;56.83;23.05;;;;;;;-2.39;100.00;101163.44;2614806;36;20034;-54
2022/12/13 10:19:17;;;;;;;58.95;24.77;;;;;;;-2.41;100.00;101160.84;2616010;36;20571;-53
2022/12/13 10:21:47;;;;;;;54.95;26.10;;;;;;;-2.23;100.00;101154.16;2615595;36;20089;-52
2022/12/13 10:24:21;;;;;;;58.97;24.70;;;;;;;-2.00;100.00;101152.59;2616025;31;20530;-52
2022/12/13 10:26:52;;;;;;;55.03;24.42;;;;;;;-1.87;100.00;101148.63;2615900;36;20037;-53
2022/12/13 10:29:20;;;;;;;53.58;24.10;;;;;;;-1.80;100.00;101155.41;2616066;31;20034;-51
2022/12/13 10:31:52;;;;;;;58.67;24.73;;;;;;;-1.76;100.00;101153.56;2615418;31;20514;-54
2022/12/13 10:34:24;;;;;;;59.25;23.77;;;;;;;-1.80;100.00;101150.13;2615623;36;20038;-51
2022/12/13 10:36:53;;;;;;;59.05;25.33;;;;;;;-1.64;100.00;101152.28;2616405;36;20571;-52
2022/12/13 10:39:39;;;;;;;51.13;24.02;;;;;;;-1.65;100.00;101148.81;2608820;36;20102;-52
2022/12/13 10:42:15;;;;;;;54.33;24.35;;;;;;;-1.58;100.00;101152.06;2609370;36;20039;-51
2022/12/13 10:44:44;;;;;;;57.30;23.10;;;;;;;-1.46;100.00;101150.81;2615388;36;20575;-53
2022/12/13 10:47:18;;;;;;;52.20;22.40;;;;;;;-1.46;100.00;101140.25;2615734;36;20562;-52
2022/12/13 10:49:53;;;;;;;53.58;23.75;;;;;;;-1.22;100.00;101133.28;2616511;36;20427;-52
2022/12/13 10:52:26;;;;;;;45.95;21.40;;;;;;;-1.18;100.00;101134.84;2615868;36;20073;-51
2022/12/13 10:54:55;;;;;;;50.38;22.08;;;;;;;-1.30;100.00;101133.50;2615392;36;20030;-52
2022/12/13 10:57:26;;;;;;;45.63;21.85;;;;;;;-1.25;100.00;101123.66;2615929;36;20038;-51
2022/12/13 10:59:55;;;;;;;53.33;22.10;;;;;;;-1.19;100.00;101127.88;2615599;31;20030;-54
2022/12/13 11:02:33;;;;;;;43.45;20.77;;;;;;;-1.32;100.00;101116.88;2615768;36;20041;-52
2022/12/13 11:05:22;;;;;;;44.63;21.58;;;;;;;-1.30;100.00;101114.19;2615632;31;20467;-52
2022/12/13 11:07:51;;;;;;;50.40;20.17;;;;;;;-1.17;100.00;101117.25;2611812;36;20892;-52
2022/12/13 11:10:25;;;;;;;42.28;19.65;;;;;;;-1.18;100.00;101119.00;2613303;36;20022;-53
2022/12/13 11:13:02;;;;;;;46.70;21.52;;;;;;;-1.21;100.00;101115.63;2615781;36;20034;-53
2022/12/13 11:15:33;;;;;;;45.15;20.38;;;;;;;-1.14;100.00;101114.50;2615912;31;20491;-51
2022/12/13 11:18:04;;;;;;;41.83;19.13;;;;;;;-0.96;100.00;101102.41;2616150;36;20035;-51
2022/12/13 11:20:36;;;;;;;42.13;18.77;;;;;;;-1.00;100.00;101108.72;2615072;36;20035;-49
2022/12/13 11:23:07;;;;;;;40.97;18.95;;;;;;;-1.03;100.00;101108.81;2615586;36;20034;-54
2022/12/13 11:25:42;;;;;;;36.38;18.38;;;;;;;-0.97;100.00;101105.94;2614732;36;20570;-54